Terminal Aerodrome Forecast
Issued by NWS Midland/Odessa, TX

Current Version | Previous Version | Text Only | Print | Product List | Glossary On
Versions: 1 2 3 4 5 6 7 8 9 10 11 12 13 14 15 16 17 18 19 20 21 22 23 24 25 26 27 28 29 30 31 32 33
000
FTUS44 KMAF 310500
TAFMAF
TAF
KMAF 310520Z 3106/0106 05011KT P6SM SCT100 OVC200
      TEMPO 3106/3107 VRB20G30KT 5SM TSRA BKN100CB
     FM310700 02015G24KT P6SM BKN100
     FM310900 05015KT P6SM FEW050 BKN200=

USA.gov is the U.S. government's official web portal to all federal, state and local government web resources and services.